Time;durP1;ratioP1;P1;durP2;ratioP2;P2;SDS_P1;SDS_P2;PMS_P1;PMS_P2;Temp;Humidity;BMP_temperature;BMP_pressure;BME280_temperature;BME280_humidity;BME280_pressure;Samples;Min_cycle;Max_cycle;Signal;HPM_P1;HPM_P2
2023/07/13 00:00:54;;;;;;;1.80;1.48;;;;;;;;;;5077161;28;20276;-59
2023/07/13 00:03:21;;;;;;;2.05;1.50;;;;;;;;;;5077507;28;20236;-60
2023/07/13 00:05:50;;;;;;;2.85;1.65;;;;;;;;;;5077040;28;20553;-60
2023/07/13 00:08:18;;;;;;;2.08;1.40;;;;;;;;;;5077607;28;20206;-60
2023/07/13 00:10:46;;;;;;;2.58;1.70;;;;;;;;;;5077771;28;20672;-60
2023/07/13 00:13:15;;;;;;;2.75;1.35;;;;;;;;;;5077966;28;20524;-60
2023/07/13 00:15:42;;;;;;;2.35;1.58;;;;;;;;;;5077658;28;20204;-60
2023/07/13 00:18:10;;;;;;;1.55;1.45;;;;;;;;;;5080584;28;20619;-60
2023/07/13 00:20:38;;;;;;;1.98;1.50;;;;;;;;;;5081766;28;20291;-60
2023/07/13 00:23:05;;;;;;;1.50;1.40;;;;;;;;;;5081455;28;20587;-60
2023/07/13 00:25:33;;;;;;;2.00;1.30;;;;;;;;;;5081530;28;20302;-59
2023/07/13 00:28:00;;;;;;;1.77;1.40;;;;;;;;;;5081541;28;20298;-60
2023/07/13 00:30:29;;;;;;;1.38;1.20;;;;;;;;;;5081209;28;20283;-60
2023/07/13 00:32:57;;;;;;;1.58;1.38;;;;;;;;;;5081450;28;20204;-60
2023/07/13 00:35:24;;;;;;;2.85;1.60;;;;;;;;;;5081374;28;20200;-59
2023/07/13 00:37:52;;;;;;;1.85;1.48;;;;;;;;;;5081111;28;20263;-60
2023/07/13 00:40:20;;;;;;;1.80;1.70;;;;;;;;;;5080883;28;20281;-60
2023/07/13 00:42:47;;;;;;;1.50;1.40;;;;;;;;;;5081341;28;20240;-60
2023/07/13 00:45:33;;;;;;;1.65;1.50;;;;;;;;;;5081417;28;20208;-60
2023/07/13 00:48:02;;;;;;;3.25;1.58;;;;;;;;;;5051219;28;20653;-60
2023/07/13 00:50:30;;;;;;;1.65;1.33;;;;;;;;;;5081620;28;20196;-60
2023/07/13 00:52:58;;;;;;;2.08;1.30;;;;;;;;;;5080581;28;20281;-60
2023/07/13 00:55:25;;;;;;;1.48;1.30;;;;;;;;;;5080854;28;20815;-60
2023/07/13 00:57:53;;;;;;;2.25;1.50;;;;;;;;;;5081187;28;20239;-60
2023/07/13 01:00:21;;;;;;;2.17;1.52;;;;;;;;;;5080663;28;20231;-60
2023/07/13 01:02:49;;;;;;;1.80;1.60;;;;;;;;;;5080469;28;20232;-61
2023/07/13 01:05:19;;;;;;;3.65;1.63;;;;;;;;;;5080751;28;20248;-62
2023/07/13 01:07:47;;;;;;;1.65;1.50;;;;;;;;;;5080705;28;20204;-61
2023/07/13 01:10:15;;;;;;;3.63;1.70;;;;;;;;;;5080551;28;20208;-59
2023/07/13 01:12:42;;;;;;;4.00;2.08;;;;;;;;;;5080941;28;20319;-59
2023/07/13 01:15:25;;;;;;;4.75;1.83;;;;;;;;;;5080860;28;20271;-62
2023/07/13 01:17:52;;;;;;;2.97;1.52;;;;;;;;;;5079877;28;20231;-59
2023/07/13 01:20:21;;;;;;;3.33;1.63;;;;;;;;;;5080811;28;20661;-59
2023/07/13 01:22:50;;;;;;;2.75;1.67;;;;;;;;;;5080304;28;20251;-59
2023/07/13 01:25:18;;;;;;;3.28;1.60;;;;;;;;;;5080114;28;20587;-59
2023/07/13 01:27:46;;;;;;;1.58;1.45;;;;;;;;;;5081003;28;20473;-59
2023/07/13 01:30:14;;;;;;;1.60;1.50;;;;;;;;;;5079733;28;20212;-59
2023/07/13 01:32:42;;;;;;;2.70;1.33;;;;;;;;;;5080893;28;20214;-59
2023/07/13 01:35:09;;;;;;;2.15;1.60;;;;;;;;;;5080673;28;20205;-59
2023/07/13 01:37:36;;;;;;;2.33;1.60;;;;;;;;;;5080256;28;20204;-59
2023/07/13 01:40:06;;;;;;;1.42;1.33;;;;;;;;;;5080563;28;20311;-59
2023/07/13 01:42:34;;;;;;;1.63;1.45;;;;;;;;;;5080259;28;20572;-59
2023/07/13 01:45:01;;;;;;;3.08;1.52;;;;;;;;;;5079941;28;20291;-59
2023/07/13 01:47:30;;;;;;;1.80;1.48;;;;;;;;;;5079949;28;20289;-59
2023/07/13 01:49:58;;;;;;;2.15;1.38;;;;;;;;;;5080512;28;20204;-59
2023/07/13 01:52:25;;;;;;;1.83;1.52;;;;;;;;;;5080113;28;20548;-59
2023/07/13 01:54:53;;;;;;;1.85;1.45;;;;;;;;;;5080522;28;20298;-59
2023/07/13 01:57:21;;;;;;;1.50;1.40;;;;;;;;;;5080049;28;20287;-59
2023/07/13 01:59:49;;;;;;;1.63;1.42;;;;;;;;;;5079709;28;20314;-59
2023/07/13 02:02:17;;;;;;;1.98;1.40;;;;;;;;;;5079925;28;20270;-60
2023/07/13 02:04:44;;;;;;;1.95;1.60;;;;;;;;;;5079991;28;20204;-59
2023/07/13 02:07:12;;;;;;;2.58;1.60;;;;;;;;;;5079533;28;20204;-59
2023/07/13 02:09:39;;;;;;;1.63;1.52;;;;;;;;;;5079969;28;20201;-59
2023/07/13 02:12:08;;;;;;;1.52;1.42;;;;;;;;;;5079718;28;20307;-59
2023/07/13 02:14:36;;;;;;;1.58;1.45;;;;;;;;;;5079506;28;20244;-59
2023/07/13 02:17:04;;;;;;;1.67;1.45;;;;;;;;;;5079609;28;20208;-59
2023/07/13 02:19:32;;;;;;;2.47;1.65;;;;;;;;;;5079888;28;20239;-59
2023/07/13 02:21:59;;;;;;;1.75;1.60;;;;;;;;;;5079413;28;20296;-59
2023/07/13 02:24:27;;;;;;;2.10;1.50;;;;;;;;;;5079393;28;20234;-59
2023/07/13 02:26:55;;;;;;;2.00;1.63;;;;;;;;;;5079393;28;20596;-59
2023/07/13 02:29:22;;;;;;;2.13;1.50;;;;;;;;;;5079200;28;20230;-59
2023/07/13 02:31:51;;;;;;;2.38;1.63;;;;;;;;;;5079292;28;20208;-59
2023/07/13 02:34:19;;;;;;;3.50;1.60;;;;;;;;;;5079268;28;20204;-59
2023/07/13 02:36:46;;;;;;;4.80;1.48;;;;;;;;;;5079443;28;20212;-59
2023/07/13 02:39:15;;;;;;;4.45;1.55;;;;;;;;;;5079146;28;20224;-59
2023/07/13 02:41:42;;;;;;;3.95;1.52;;;;;;;;;;5078493;28;20204;-59
2023/07/13 02:44:10;;;;;;;3.10;1.60;;;;;;;;;;5079131;28;20204;-59
2023/07/13 02:46:38;;;;;;;1.83;1.50;;;;;;;;;;5079269;28;20262;-59
2023/07/13 02:49:07;;;;;;;2.03;1.63;;;;;;;;;;5079243;28;20211;-59
2023/07/13 02:51:35;;;;;;;2.38;1.70;;;;;;;;;;5078943;28;20213;-59
2023/07/13 02:54:03;;;;;;;1.58;1.40;;;;;;;;;;5078374;28;20224;-59
2023/07/13 02:56:31;;;;;;;3.20;1.60;;;;;;;;;;5078419;28;20201;-59
2023/07/13 02:58:59;;;;;;;2.15;1.60;;;;;;;;;;5078593;28;20319;-59
2023/07/13 03:01:26;;;;;;;1.65;1.55;;;;;;;;;;5078926;28;20243;-59
2023/07/13 03:03:54;;;;;;;1.70;1.60;;;;;;;;;;5078771;28;20207;-59
2023/07/13 03:06:24;;;;;;;2.75;2.00;;;;;;;;;;5078494;28;20634;-59
2023/07/13 03:08:52;;;;;;;1.60;1.50;;;;;;;;;;5078484;28;20200;-59
2023/07/13 03:11:20;;;;;;;1.63;1.50;;;;;;;;;;5078193;28;20204;-59
2023/07/13 03:13:48;;;;;;;1.80;1.70;;;;;;;;;;5078721;28;20267;-59
2023/07/13 03:16:16;;;;;;;1.80;1.70;;;;;;;;;;5078773;28;20204;-59
2023/07/13 03:18:44;;;;;;;2.38;1.50;;;;;;;;;;5078268;28;20750;-59
2023/07/13 03:21:11;;;;;;;2.38;1.70;;;;;;;;;;5078503;28;20270;-59
2023/07/13 03:23:40;;;;;;;2.85;1.55;;;;;;;;;;5078184;28;20204;-59
2023/07/13 03:26:09;;;;;;;2.97;1.80;;;;;;;;;;5078357;28;20235;-59
2023/07/13 03:28:37;;;;;;;2.17;1.63;;;;;;;;;;5078142;28;20250;-59
2023/07/13 03:31:05;;;;;;;1.58;1.48;;;;;;;;;;5078016;28;20283;-59
2023/07/13 03:33:33;;;;;;;1.70;1.60;;;;;;;;;;5078090;28;20204;-59
2023/07/13 03:36:01;;;;;;;1.80;1.60;;;;;;;;;;5077997;28;20204;-59
2023/07/13 03:38:28;;;;;;;2.25;1.65;;;;;;;;;;5078196;28;20215;-59
2023/07/13 03:40:57;;;;;;;1.60;1.50;;;;;;;;;;5078132;28;20311;-59
2023/07/13 03:43:25;;;;;;;2.63;1.80;;;;;;;;;;5077635;28;20200;-59
2023/07/13 03:45:52;;;;;;;2.67;1.83;;;;;;;;;;5077623;28;20204;-59
2023/07/13 03:48:20;;;;;;;56.33;4.40;;;;;;;;;;5077625;28;20631;-58
2023/07/13 03:50:49;;;;;;;61.22;5.28;;;;;;;;;;5077854;28;20234;-59
2023/07/13 03:53:16;;;;;;;2.72;1.70;;;;;;;;;;5077163;28;20568;-64
2023/07/13 03:55:44;;;;;;;2.55;1.77;;;;;;;;;;5076785;28;20330;-65
2023/07/13 03:58:33;;;;;;;2.08;1.73;;;;;;;;;;5077413;28;20208;-65
2023/07/13 04:01:02;;;;;;;1.92;1.80;;;;;;;;;;5072325;28;20258;-65
2023/07/13 04:03:32;;;;;;;2.30;1.70;;;;;;;;;;5077011;28;20304;-65
2023/07/13 04:06:00;;;;;;;2.30;1.77;;;;;;;;;;5077015;28;20215;-65
2023/07/13 04:08:28;;;;;;;1.73;1.63;;;;;;;;;;5076977;28;20208;-65
2023/07/13 04:10:55;;;;;;;1.90;1.70;;;;;;;;;;5077687;28;20215;-65
2023/07/13 04:13:23;;;;;;;1.90;1.80;;;;;;;;;;5077354;28;20204;-65
2023/07/13 04:15:50;;;;;;;2.00;1.80;;;;;;;;;;5076869;28;20204;-65
2023/07/13 04:18:19;;;;;;;2.10;1.70;;;;;;;;;;5076519;28;20215;-65
2023/07/13 04:20:47;;;;;;;1.70;1.60;;;;;;;;;;5076392;28;20323;-65
2023/07/13 04:23:14;;;;;;;2.25;1.88;;;;;;;;;;5076976;28;20211;-65
2023/07/13 04:25:45;;;;;;;1.75;1.65;;;;;;;;;;5076802;28;20253;-65
2023/07/13 04:28:12;;;;;;;1.73;1.58;;;;;;;;;;5076738;28;20289;-65
2023/07/13 04:30:40;;;;;;;2.00;1.85;;;;;;;;;;5076333;28;20262;-65
2023/07/13 04:33:08;;;;;;;1.60;1.50;;;;;;;;;;5076709;28;20204;-65
2023/07/13 04:35:37;;;;;;;2.05;1.85;;;;;;;;;;5076346;28;20208;-65
2023/07/13 04:38:04;;;;;;;2.65;1.75;;;;;;;;;;5075713;28;20201;-65
2023/07/13 04:40:32;;;;;;;2.58;1.83;;;;;;;;;;5076737;28;20301;-65
2023/07/13 04:43:00;;;;;;;2.50;1.88;;;;;;;;;;5076495;28;20507;-65
2023/07/13 04:45:27;;;;;;;2.28;1.70;;;;;;;;;;5077134;28;20542;-65
2023/07/13 04:47:54;;;;;;;1.92;1.60;;;;;;;;;;5076406;28;20303;-65
2023/07/13 04:50:22;;;;;;;2.58;1.85;;;;;;;;;;5076215;28;20265;-65
2023/07/13 04:52:52;;;;;;;1.92;1.83;;;;;;;;;;5076520;28;20208;-65
2023/07/13 04:55:20;;;;;;;2.40;2.20;;;;;;;;;;5075900;28;20228;-65
2023/07/13 04:57:47;;;;;;;1.80;1.70;;;;;;;;;;5075904;28;20212;-65
2023/07/13 05:00:15;;;;;;;2.28;1.65;;;;;;;;;;5075526;28;20236;-65
2023/07/13 05:02:45;;;;;;;3.63;1.98;;;;;;;;;;5075784;28;20205;-65
2023/07/13 05:05:12;;;;;;;2.03;1.90;;;;;;;;;;5079020;28;20240;-65
2023/07/13 05:07:39;;;;;;;2.70;2.10;;;;;;;;;;5079864;28;20196;-65
2023/07/13 05:10:09;;;;;;;2.50;2.28;;;;;;;;;;5079729;28;20208;-65
2023/07/13 05:12:36;;;;;;;2.63;1.90;;;;;;;;;;5079779;28;20261;-65
2023/07/13 05:15:04;;;;;;;2.20;2.00;;;;;;;;;;5078949;28;20212;-65
2023/07/13 05:17:32;;;;;;;2.60;1.90;;;;;;;;;;5079192;28;20307;-65
2023/07/13 05:19:59;;;;;;;2.00;1.77;;;;;;;;;;5078666;28;20240;-65
2023/07/13 05:22:26;;;;;;;2.30;2.10;;;;;;;;;;5079192;28;20216;-65
2023/07/13 05:24:54;;;;;;;2.10;1.90;;;;;;;;;;5079461;28;20204;-65
2023/07/13 05:27:23;;;;;;;2.67;2.08;;;;;;;;;;5079001;28;20212;-65
2023/07/13 05:29:50;;;;;;;3.15;2.17;;;;;;;;;;5078919;28;20258;-65
2023/07/13 05:32:18;;;;;;;2.67;1.92;;;;;;;;;;5079616;28;20269;-65
2023/07/13 05:34:46;;;;;;;3.10;1.77;;;;;;;;;;5078389;28;20208;-65
2023/07/13 05:37:13;;;;;;;3.92;2.05;;;;;;;;;;5078718;28;20671;-65
2023/07/13 05:39:41;;;;;;;3.17;2.15;;;;;;;;;;5078933;28;20224;-65
2023/07/13 05:42:08;;;;;;;2.30;2.10;;;;;;;;;;5079345;28;20269;-64
2023/07/13 05:44:37;;;;;;;2.95;1.83;;;;;;;;;;5078906;28;20322;-64
2023/07/13 05:47:04;;;;;;;1.85;1.75;;;;;;;;;;5078123;28;20588;-65
2023/07/13 05:49:32;;;;;;;2.33;2.03;;;;;;;;;;5078234;28;20253;-65
2023/07/13 05:51:59;;;;;;;2.78;2.10;;;;;;;;;;5078088;28;20208;-65
2023/07/13 05:54:26;;;;;;;2.30;2.10;;;;;;;;;;5078526;28;20321;-65
2023/07/13 05:56:54;;;;;;;3.05;2.08;;;;;;;;;;5078647;28;20551;-65
2023/07/13 05:59:21;;;;;;;2.25;1.83;;;;;;;;;;5077608;28;20560;-65
2023/07/13 06:01:52;;;;;;;2.95;2.20;;;;;;;;;;5078078;28;20572;-65
2023/07/13 06:04:19;;;;;;;3.33;2.05;;;;;;;;;;5077800;28;20535;-65
2023/07/13 06:06:47;;;;;;;2.58;2.00;;;;;;;;;;5077896;28;20197;-65
2023/07/13 06:09:14;;;;;;;3.08;2.20;;;;;;;;;;5077993;28;21167;-65
2023/07/13 06:11:41;;;;;;;3.00;2.17;;;;;;;;;;5077666;28;20204;-65
2023/07/13 06:14:09;;;;;;;2.20;2.00;;;;;;;;;;5078256;28;20290;-65
2023/07/13 06:16:36;;;;;;;2.00;1.80;;;;;;;;;;5077612;28;20415;-65
2023/07/13 06:19:06;;;;;;;1.70;1.60;;;;;;;;;;5077283;28;20269;-65
2023/07/13 06:21:33;;;;;;;2.05;1.80;;;;;;;;;;5076956;28;20239;-65
2023/07/13 06:24:00;;;;;;;2.03;1.83;;;;;;;;;;5077543;28;20204;-65
2023/07/13 06:26:27;;;;;;;2.53;1.80;;;;;;;;;;5077696;28;20204;-65
2023/07/13 06:28:55;;;;;;;2.22;1.83;;;;;;;;;;5077337;28;20201;-65
2023/07/13 06:31:22;;;;;;;1.80;1.70;;;;;;;;;;5077114;28;20219;-65
2023/07/13 06:33:49;;;;;;;2.08;1.60;;;;;;;;;;5077286;28;20212;-65
2023/07/13 06:36:18;;;;;;;2.42;1.52;;;;;;;;;;5077916;28;20204;-65
2023/07/13 06:38:46;;;;;;;1.58;1.40;;;;;;;;;;5077670;28;20669;-65
2023/07/13 06:41:13;;;;;;;2.28;1.70;;;;;;;;;;5076848;28;20228;-65
2023/07/13 06:43:40;;;;;;;2.80;1.80;;;;;;;;;;5077139;28;20213;-65
2023/07/13 06:46:08;;;;;;;2.00;1.40;;;;;;;;;;5077112;28;20584;-65
2023/07/13 06:48:35;;;;;;;2.03;1.40;;;;;;;;;;5076824;28;20494;-65
2023/07/13 06:51:03;;;;;;;2.38;1.60;;;;;;;;;;5076759;28;20298;-65
2023/07/13 06:53:32;;;;;;;3.30;1.33;;;;;;;;;;5075633;28;20250;-65
2023/07/13 06:55:59;;;;;;;1.90;1.27;;;;;;;;;;5076827;28;20212;-65
2023/07/13 06:58:27;;;;;;;2.10;1.40;;;;;;;;;;5076654;28;20204;-65
2023/07/13 07:00:54;;;;;;;1.83;1.40;;;;;;;;;;5076339;28;20243;-65
2023/07/13 07:03:21;;;;;;;2.40;1.35;;;;;;;;;;5075911;28;20204;-69
2023/07/13 07:05:49;;;;;;;1.40;1.30;;;;;;;;;;5076070;28;20216;-65
2023/07/13 07:08:16;;;;;;;1.75;1.40;;;;;;;;;;5076032;28;20196;-65
2023/07/13 07:10:45;;;;;;;1.75;1.33;;;;;;;;;;5077021;28;20208;-65
2023/07/13 07:13:12;;;;;;;1.95;1.20;;;;;;;;;;5076848;28;20204;-65
2023/07/13 07:15:39;;;;;;;2.40;1.20;;;;;;;;;;5076379;28;20215;-65
2023/07/13 07:18:09;;;;;;;2.10;1.30;;;;;;;;;;5076127;28;20278;-65
2023/07/13 07:20:36;;;;;;;2.08;1.30;;;;;;;;;;5076015;28;20556;-65
2023/07/13 07:23:03;;;;;;;2.88;1.40;;;;;;;;;;5076292;28;20464;-66
2023/07/13 07:25:32;;;;;;;1.60;1.40;;;;;;;;;;5076225;28;20584;-65
2023/07/13 07:28:01;;;;;;;3.35;1.50;;;;;;;;;;5075541;28;20567;-65
2023/07/13 07:30:28;;;;;;;1.40;1.30;;;;;;;;;;5075730;28;20200;-65
2023/07/13 07:32:55;;;;;;;2.58;1.20;;;;;;;;;;5076082;28;20510;-65
2023/07/13 07:35:22;;;;;;;2.35;1.45;;;;;;;;;;5075877;28;20212;-66
2023/07/13 07:37:50;;;;;;;3.13;1.38;;;;;;;;;;5076449;28;20208;-65
2023/07/13 07:40:18;;;;;;;2.35;1.55;;;;;;;;;;5076150;28;20620;-65
2023/07/13 07:42:45;;;;;;;1.48;1.38;;;;;;;;;;5075906;28;20215;-66
2023/07/13 07:45:16;;;;;;;2.15;1.60;;;;;;;;;;5076391;28;20303;-65
2023/07/13 07:47:43;;;;;;;2.47;1.48;;;;;;;;;;5075652;28;20204;-65
2023/07/13 07:50:11;;;;;;;2.33;1.55;;;;;;;;;;5075459;28;20200;-65
2023/07/13 07:52:39;;;;;;;2.78;1.70;;;;;;;;;;5075683;28;20536;-65
2023/07/13 07:55:07;;;;;;;2.35;1.60;;;;;;;;;;5075974;28;20243;-65
2023/07/13 07:57:35;;;;;;;2.15;1.50;;;;;;;;;;5076057;28;20621;-65
2023/07/13 08:00:02;;;;;;;1.60;1.08;;;;;;;;;;5076021;28;20262;-65
2023/07/13 08:02:31;;;;;;;3.08;1.52;;;;;;;;;;5075706;28;20691;-65
2023/07/13 08:04:58;;;;;;;2.45;1.27;;;;;;;;;;5075580;28;20588;-65
2023/07/13 08:07:26;;;;;;;3.20;1.33;;;;;;;;;;5076073;28;20201;-65
2023/07/13 08:09:53;;;;;;;2.08;1.40;;;;;;;;;;5075906;28;20269;-68
2023/07/13 08:12:21;;;;;;;3.20;1.60;;;;;;;;;;5075234;28;20216;-65
2023/07/13 08:14:53;;;;;;;1.88;1.35;;;;;;;;;;5075616;28;20204;-65
2023/07/13 08:17:20;;;;;;;3.50;1.65;;;;;;;;;;5075437;28;20637;-65
2023/07/13 08:19:49;;;;;;;2.95;1.50;;;;;;;;;;5074881;28;20200;-65
2023/07/13 08:22:17;;;;;;;3.22;1.75;;;;;;;;;;5074621;28;20215;-65
2023/07/13 08:24:44;;;;;;;2.40;1.58;;;;;;;;;;5074853;28;20204;-65
2023/07/13 08:27:12;;;;;;;3.70;1.45;;;;;;;;;;5074976;28;20212;-65
2023/07/13 08:29:40;;;;;;;2.63;1.55;;;;;;;;;;5074929;28;20212;-65
2023/07/13 08:32:09;;;;;;;2.15;1.50;;;;;;;;;;5074364;28;20257;-65
2023/07/13 08:34:39;;;;;;;1.52;1.40;;;;;;;;;;5075053;28;20570;-65
2023/07/13 08:37:10;;;;;;;3.08;1.50;;;;;;;;;;5074532;28;20212;-65
2023/07/13 08:39:41;;;;;;;2.15;1.60;;;;;;;;;;5077480;28;20204;-65
2023/07/13 08:42:11;;;;;;;3.55;1.70;;;;;;;;;;5079697;28;20232;-65
2023/07/13 08:44:41;;;;;;;2.10;1.55;;;;;;;;;;5078027;28;20204;-65
2023/07/13 08:47:11;;;;;;;1.95;1.52;;;;;;;;;;5077338;28;20561;-65
2023/07/13 08:49:38;;;;;;;3.10;1.67;;;;;;;;;;5077331;28;20243;-65
2023/07/13 08:52:10;;;;;;;1.75;1.63;;;;;;;;;;5079001;28;20200;-65
2023/07/13 08:54:38;;;;;;;2.67;1.77;;;;;;;;;;5078203;28;20293;-65
2023/07/13 08:57:12;;;;;;;1.42;1.33;;;;;;;;;;5077794;28;20204;-65
2023/07/13 08:59:39;;;;;;;2.78;1.63;;;;;;;;;;5078062;28;20212;-65
2023/07/13 09:02:22;;;;;;;2.38;1.70;;;;;;;;;;5078088;28;20290;-65
2023/07/13 09:04:51;;;;;;;2.28;1.70;;;;;;;;;;5076107;28;20204;-64
2023/07/13 09:07:26;;;;;;;2.25;1.50;;;;;;;;;;5077513;28;20232;-64
2023/07/13 09:10:00;;;;;;;1.85;1.50;;;;;;;;;;5077886;28;20204;-64
2023/07/13 09:12:31;;;;;;;1.60;1.50;;;;;;;;;;5078223;28;20642;-64
2023/07/13 09:15:00;;;;;;;2.42;1.70;;;;;;;;;;5077732;28;20212;-65
2023/07/13 09:17:29;;;;;;;2.45;1.77;;;;;;;;;;5077853;28;20204;-65
2023/07/13 09:20:00;;;;;;;2.22;1.60;;;;;;;;;;5077848;28;20200;-65
2023/07/13 09:22:31;;;;;;;3.78;1.80;;;;;;;;;;5077577;28;20236;-65
2023/07/13 09:25:02;;;;;;;2.58;1.70;;;;;;;;;;5077854;28;20779;-64
2023/07/13 09:27:31;;;;;;;1.98;1.60;;;;;;;;;;5077412;28;20200;-64
2023/07/13 09:30:04;;;;;;;2.03;1.80;;;;;;;;;;5076633;28;20200;-64
2023/07/13 09:32:33;;;;;;;2.80;1.80;;;;;;;;;;5077435;28;20222;-64
2023/07/13 09:35:01;;;;;;;2.63;2.05;;;;;;;;;;5077642;28;20524;-64
2023/07/13 09:37:33;;;;;;;2.15;1.88;;;;;;;;;;5077538;28;20200;-64
2023/07/13 09:40:01;;;;;;;2.53;1.55;;;;;;;;;;5078375;28;20300;-65
2023/07/13 09:42:28;;;;;;;3.80;1.77;;;;;;;;;;5076920;28;20239;-65
2023/07/13 09:44:57;;;;;;;2.30;1.80;;;;;;;;;;5076845;28;20853;-66
2023/07/13 09:47:26;;;;;;;2.05;1.80;;;;;;;;;;5077690;28;20212;-66
2023/07/13 09:49:58;;;;;;;2.30;1.90;;;;;;;;;;5075639;28;20297;-66
2023/07/13 09:52:25;;;;;;;2.42;1.77;;;;;;;;;;5076590;28;20599;-66
2023/07/13 09:54:58;;;;;;;1.95;1.70;;;;;;;;;;5076443;28;20232;-66
2023/07/13 09:57:26;;;;;;;3.25;1.90;;;;;;;;;;5077132;28;20629;-66
2023/07/13 09:59:56;;;;;;;2.53;1.92;;;;;;;;;;5076230;28;20249;-66
2023/07/13 10:02:30;;;;;;;3.67;1.83;;;;;;;;;;5076774;28;20231;-66
2023/07/13 10:04:58;;;;;;;2.55;1.77;;;;;;;;;;5077214;28;20300;-66
2023/07/13 10:07:26;;;;;;;2.30;1.80;;;;;;;;;;5076336;28;20267;-67
2023/07/13 10:09:56;;;;;;;2.80;1.70;;;;;;;;;;5076696;28;20284;-66
2023/07/13 10:12:24;;;;;;;2.22;1.90;;;;;;;;;;5076101;28;20208;-66
2023/07/13 10:14:53;;;;;;;2.13;1.80;;;;;;;;;;5076910;28;20219;-66
2023/07/13 10:17:24;;;;;;;2.63;1.90;;;;;;;;;;5076467;28;20261;-66
2023/07/13 10:19:51;;;;;;;1.80;1.70;;;;;;;;;;5076733;28;20736;-66
2023/07/13 10:22:24;;;;;;;3.22;1.73;;;;;;;;;;5075722;28;20231;-66
2023/07/13 10:24:52;;;;;;;2.70;1.92;;;;;;;;;;5076237;28;20212;-65
2023/07/13 10:27:25;;;;;;;2.65;2.00;;;;;;;;;;5075783;28;20310;-66
2023/07/13 10:29:55;;;;;;;2.92;1.80;;;;;;;;;;5076039;28;20215;-65
2023/07/13 10:32:24;;;;;;;1.88;1.63;;;;;;;;;;5076261;28;20201;-66
2023/07/13 10:34:55;;;;;;;2.30;2.03;;;;;;;;;;5075407;28;20307;-65
2023/07/13 10:37:24;;;;;;;4.90;1.90;;;;;;;;;;5075411;28;20398;-65
2023/07/13 10:39:52;;;;;;;2.00;1.70;;;;;;;;;;5074024;28;20208;-65
2023/07/13 10:42:26;;;;;;;3.20;1.90;;;;;;;;;;5075392;28;20225;-65
2023/07/13 10:44:53;;;;;;;2.30;1.60;;;;;;;;;;5075712;28;20498;-65
2023/07/13 10:47:21;;;;;;;2.30;1.90;;;;;;;;;;5075553;28;20659;-66
2023/07/13 10:49:49;;;;;;;2.50;1.70;;;;;;;;;;5075870;28;20679;-65
2023/07/13 10:52:36;;;;;;;1.83;1.67;;;;;;;;;;5075876;28;20653;-65
2023/07/13 10:55:06;;;;;;;3.05;1.85;;;;;;;;;;5075203;28;20244;-65
2023/07/13 10:57:43;;;;;;;2.55;1.73;;;;;;;;;;5075295;28;20205;-66
2023/07/13 11:00:16;;;;;;;2.05;1.55;;;;;;;;;;5075761;28;20196;-66
2023/07/13 11:02:43;;;;;;;1.95;1.52;;;;;;;;;;5074436;28;20227;-65
2023/07/13 11:05:27;;;;;;;1.75;1.50;;;;;;;;;;5075481;28;20646;-65
2023/07/13 11:07:57;;;;;;;1.83;1.40;;;;;;;;;;5075254;28;20691;-65
2023/07/13 11:10:49;;;;;;;1.77;1.35;;;;;;;;;;5075337;28;20275;-66
2023/07/13 11:13:31;;;;;;;2.17;1.63;;;;;;;;;;5074533;28;20623;-66
2023/07/13 11:15:59;;;;;;;2.05;1.20;;;;;;;;;;5073522;28;20212;-66
2023/07/13 11:18:27;;;;;;;1.60;1.23;;;;;;;;;;5074257;28;20603;-66
2023/07/13 11:21:15;;;;;;;2.33;1.42;;;;;;;;;;5075504;28;20204;-65
2023/07/13 11:23:44;;;;;;;2.33;1.20;;;;;;;;;;5074429;28;20637;-66
2023/07/13 11:26:27;;;;;;;2.25;1.30;;;;;;;;;;5075183;28;20293;-65
2023/07/13 11:28:54;;;;;;;1.75;1.48;;;;;;;;;;5074309;28;20243;-65
2023/07/13 11:31:24;;;;;;;1.55;1.45;;;;;;;;;;5075430;28;20197;-66
2023/07/13 11:33:53;;;;;;;4.28;1.85;;;;;;;;;;5073805;28;20211;-65
2023/07/13 11:36:22;;;;;;;3.55;1.80;;;;;;;;;;5074486;28;20287;-66
2023/07/13 11:38:53;;;;;;;2.33;1.40;;;;;;;;;;5075229;28;20196;-66
2023/07/13 11:41:22;;;;;;;2.22;1.70;;;;;;;;;;5074404;28;20216;-66
2023/07/13 11:43:51;;;;;;;1.65;1.48;;;;;;;;;;5073921;28;20273;-66
2023/07/13 11:46:21;;;;;;;1.92;1.42;;;;;;;;;;5074164;28;20295;-66
2023/07/13 11:48:50;;;;;;;2.00;1.52;;;;;;;;;;5073535;28;20258;-66
2023/07/13 11:51:22;;;;;;;2.03;1.50;;;;;;;;;;5075719;28;20591;-66
2023/07/13 11:53:51;;;;;;;1.20;1.10;;;;;;;;;;5074767;28;20240;-66
2023/07/13 11:56:19;;;;;;;1.70;1.25;;;;;;;;;;5074526;28;20196;-66
2023/07/13 11:58:49;;;;;;;1.77;1.30;;;;;;;;;;5074265;28;20204;-66
2023/07/13 12:01:20;;;;;;;2.28;1.30;;;;;;;;;;5074373;28;20547;-66
2023/07/13 12:03:48;;;;;;;1.42;1.33;;;;;;;;;;5074127;28;20237;-66
2023/07/13 12:06:30;;;;;;;1.40;1.30;;;;;;;;;;5073771;28;20200;-66
2023/07/13 12:08:58;;;;;;;1.98;1.23;;;;;;;;;;5075024;28;20555;-66
2023/07/13 12:11:26;;;;;;;1.67;1.20;;;;;;;;;;5074964;28;20307;-66
2023/07/13 12:13:54;;;;;;;1.58;1.40;;;;;;;;;;5077168;28;20207;-66
2023/07/13 12:16:25;;;;;;;1.65;1.27;;;;;;;;;;5078676;28;20501;-66
2023/07/13 12:18:55;;;;;;;1.83;1.13;;;;;;;;;;5078096;28;20208;-66
2023/07/13 12:21:25;;;;;;;1.50;1.20;;;;;;;;;;5077894;28;20542;-67
2023/07/13 12:23:53;;;;;;;1.75;1.20;;;;;;;;;;5077885;28;20206;-66
2023/07/13 12:26:21;;;;;;;1.33;1.23;;;;;;;;;;5077448;28;20215;-67
2023/07/13 12:28:52;;;;;;;1.30;1.20;;;;;;;;;;5077035;28;20196;-66
2023/07/13 12:31:25;;;;;;;1.85;1.20;;;;;;;;;;5077662;28;20211;-66
2023/07/13 12:33:58;;;;;;;1.52;1.40;;;;;;;;;;5077839;28;20208;-66
2023/07/13 12:36:25;;;;;;;2.13;1.10;;;;;;;;;;5077649;28;20204;-66
2023/07/13 12:38:54;;;;;;;1.80;1.20;;;;;;;;;;5076987;28;20211;-67
2023/07/13 12:41:23;;;;;;;1.20;0.90;;;;;;;;;;5076547;28;20204;-66
2023/07/13 12:43:50;;;;;;;2.45;1.20;;;;;;;;;;5077377;28;20262;-67
2023/07/13 12:46:20;;;;;;;2.30;1.13;;;;;;;;;;5077975;28;20204;-61
2023/07/13 12:48:50;;;;;;;2.13;1.10;;;;;;;;;;5078340;28;20289;-63
2023/07/13 12:51:17;;;;;;;2.05;1.10;;;;;;;;;;5077389;28;20599;-62
2023/07/13 12:53:49;;;;;;;1.83;1.00;;;;;;;;;;5076439;28;20562;-63
2023/07/13 12:56:20;;;;;;;2.05;1.10;;;;;;;;;;5078006;28;20215;-63
2023/07/13 12:58:54;;;;;;;1.10;1.00;;;;;;;;;;5076567;28;20695;-60
2023/07/13 13:01:22;;;;;;;1.15;1.02;;;;;;;;;;5077381;28;20221;-60
2023/07/13 13:03:51;;;;;;;0.98;0.88;;;;;;;;;;5076910;28;20318;-60
2023/07/13 13:06:26;;;;;;;1.50;0.88;;;;;;;;;;5076890;28;20302;-60
2023/07/13 13:08:55;;;;;;;1.63;1.00;;;;;;;;;;5077446;28;20211;-60
2023/07/13 13:11:25;;;;;;;1.27;1.17;;;;;;;;;;5076686;28;20204;-61
2023/07/13 13:13:53;;;;;;;1.00;0.93;;;;;;;;;;5077194;28;20208;-60
2023/07/13 13:16:22;;;;;;;1.00;0.90;;;;;;;;;;5077260;28;20572;-60
2023/07/13 13:18:51;;;;;;;2.00;0.85;;;;;;;;;;5076529;28;20253;-60
2023/07/13 13:21:19;;;;;;;1.13;0.93;;;;;;;;;;5076708;28;20211;-60
2023/07/13 13:23:46;;;;;;;1.77;0.73;;;;;;;;;;5076917;28;20251;-60
2023/07/13 13:26:14;;;;;;;0.93;0.70;;;;;;;;;;5076511;28;20542;-60
2023/07/13 13:28:43;;;;;;;0.60;0.60;;;;;;;;;;5077229;28;20204;-60
2023/07/13 13:31:12;;;;;;;0.50;0.50;;;;;;;;;;5076645;28;20266;-60
2023/07/13 13:33:42;;;;;;;2.10;0.90;;;;;;;;;;5075893;28;20200;-60
2023/07/13 13:36:13;;;;;;;1.23;0.52;;;;;;;;;;5076278;28;20446;-60
2023/07/13 13:38:41;;;;;;;0.82;0.57;;;;;;;;;;5077324;28;20208;-60
2023/07/13 13:41:10;;;;;;;1.02;0.60;;;;;;;;;;5076415;28;20208;-61
2023/07/13 13:43:37;;;;;;;1.50;0.60;;;;;;;;;;5076434;28;20635;-60
2023/07/13 13:46:13;;;;;;;0.98;0.50;;;;;;;;;;5076206;28;20196;-60
2023/07/13 13:48:41;;;;;;;1.50;0.60;;;;;;;;;;5076478;28;20215;-61
2023/07/13 13:51:16;;;;;;;1.50;0.55;;;;;;;;;;5075442;28;20482;-61
2023/07/13 13:53:43;;;;;;;1.42;0.68;;;;;;;;;;5073950;28;20214;-60
2023/07/13 13:56:10;;;;;;;2.50;0.50;;;;;;;;;;5076117;28;20257;-60
2023/07/13 13:58:38;;;;;;;1.13;0.75;;;;;;;;;;5076844;28;20200;-60
2023/07/13 14:01:10;;;;;;;1.92;0.70;;;;;;;;;;5075377;28;20204;-60
2023/07/13 14:03:37;;;;;;;1.55;0.60;;;;;;;;;;5075597;28;20225;-60
2023/07/13 14:06:05;;;;;;;0.65;0.60;;;;;;;;;;5075256;28;20262;-60
2023/07/13 14:08:32;;;;;;;1.48;0.60;;;;;;;;;;5079697;28;20751;-60
2023/07/13 14:10:59;;;;;;;1.08;0.68;;;;;;;;;;5089071;28;20203;-60
2023/07/13 14:13:28;;;;;;;1.17;0.55;;;;;;;;;;5096375;28;20192;-60
2023/07/13 14:15:56;;;;;;;1.30;0.80;;;;;;;;;;5095136;28;20242;-60
2023/07/13 14:18:25;;;;;;;1.13;0.70;;;;;;;;;;5096227;28;20211;-60
2023/07/13 14:20:53;;;;;;;2.17;0.63;;;;;;;;;;5095441;28;20204;-61
2023/07/13 14:23:20;;;;;;;1.80;0.70;;;;;;;;;;5096222;28;20230;-60
2023/07/13 14:25:48;;;;;;;0.85;0.80;;;;;;;;;;5095688;28;20222;-60
2023/07/13 14:28:20;;;;;;;0.98;0.65;;;;;;;;;;5096096;28;20227;-60
2023/07/13 14:30:48;;;;;;;1.52;0.60;;;;;;;;;;5095610;28;20633;-60
2023/07/13 14:33:15;;;;;;;0.70;0.60;;;;;;;;;;5095889;28;20199;-60
2023/07/13 14:35:44;;;;;;;0.47;0.47;;;;;;;;;;5095224;28;20204;-60
2023/07/13 14:38:13;;;;;;;1.17;0.70;;;;;;;;;;5096152;28;20233;-60
2023/07/13 14:40:41;;;;;;;1.30;0.88;;;;;;;;;;5096206;28;20507;-59
2023/07/13 14:43:11;;;;;;;0.95;0.75;;;;;;;;;;5095904;28;20255;-60
2023/07/13 14:45:40;;;;;;;1.17;0.63;;;;;;;;;;5094863;28;20288;-62
2023/07/13 14:48:11;;;;;;;0.93;0.70;;;;;;;;;;5095245;28;20838;-61
2023/07/13 14:50:39;;;;;;;1.35;0.75;;;;;;;;;;5095811;28;20203;-60
2023/07/13 14:53:10;;;;;;;0.88;0.70;;;;;;;;;;5095106;28;20586;-61